createdAt,value
2023-05-23T00:00:52.230Z,99578.25
2023-05-23T00:03:23.068Z,99580.63
2023-05-23T00:05:51.464Z,99583.78
2023-05-23T00:08:18.295Z,99584.28
2023-05-23T00:10:45.548Z,99585.38
2023-05-23T00:13:15.348Z,99577.38
2023-05-23T00:15:42.418Z,99581.75
2023-05-23T00:18:12.468Z,99588.78
2023-05-23T00:20:43.042Z,99579.75
2023-05-23T00:23:10.489Z,99591.06
2023-05-23T00:25:37.703Z,99584.25
2023-05-23T00:28:05.110Z,99588.34
2023-05-23T00:30:32.890Z,99588.94
2023-05-23T00:33:01.078Z,99587.31
2023-05-23T00:35:28.006Z,99592.94
2023-05-23T00:37:55.678Z,99586.94
2023-05-23T00:40:22.951Z,99580.38
2023-05-23T00:42:49.923Z,99584.13
2023-05-23T00:45:17.253Z,99584.41
2023-05-23T00:47:43.998Z,99578.50
2023-05-23T00:50:16.882Z,99577.41
2023-05-23T00:52:45.069Z,99575.31
2023-05-23T00:55:12.609Z,99577.78
2023-05-23T00:57:44.628Z,99574.00
2023-05-23T01:00:12.452Z,99578.91
2023-05-23T01:02:41.785Z,99569.75
2023-05-23T01:05:08.966Z,99563.44
2023-05-23T01:07:36.218Z,99570.16
2023-05-23T01:10:03.675Z,99565.28
2023-05-23T01:12:39.896Z,99574.25
2023-05-23T01:15:08.950Z,99567.53
2023-05-23T01:17:45.137Z,99563.16
2023-05-23T01:20:12.873Z,99568.09
2023-05-23T01:22:48.791Z,99567.03
2023-05-23T01:25:22.182Z,99562.22
2023-05-23T01:27:50.549Z,99568.44
2023-05-23T01:30:18.573Z,99567.63
2023-05-23T01:32:47.520Z,99568.44
2023-05-23T01:35:14.749Z,99569.25
2023-05-23T01:37:41.530Z,99569.84
2023-05-23T01:40:09.333Z,99567.13
2023-05-23T01:42:36.762Z,99571.56
2023-05-23T01:45:04.292Z,99564.38
2023-05-23T01:47:31.549Z,99559.06
2023-05-23T01:49:58.502Z,99559.38
2023-05-23T01:52:26.206Z,99551.84
2023-05-23T01:54:54.028Z,99560.53
2023-05-23T01:57:20.950Z,99564.38
2023-05-23T01:59:48.128Z,99559.78
2023-05-23T02:02:15.469Z,99557.06
2023-05-23T02:04:42.408Z,99552.50
2023-05-23T02:07:09.267Z,99550.13
2023-05-23T02:09:36.066Z,99555.28
2023-05-23T02:12:02.897Z,99556.13
2023-05-23T02:14:29.882Z,99562.66
2023-05-23T02:16:56.707Z,99547.00
2023-05-23T02:19:23.799Z,99554.38
2023-05-23T02:21:51.050Z,99546.84
2023-05-23T02:24:18.495Z,99549.03
2023-05-23T02:26:45.493Z,99548.81
2023-05-23T02:29:12.239Z,99550.94
2023-05-23T02:31:39.095Z,99557.91
2023-05-23T02:34:06.106Z,99556.03
2023-05-23T02:36:33.578Z,99551.09
2023-05-23T02:39:00.573Z,99549.47
2023-05-23T02:41:27.480Z,99546.19
2023-05-23T02:43:54.616Z,99549.97
2023-05-23T02:46:21.561Z,99554.31
2023-05-23T02:48:48.808Z,99556.19
2023-05-23T02:51:15.811Z,99551.00
2023-05-23T02:53:42.883Z,99552.09
2023-05-23T02:56:09.988Z,99562.44
2023-05-23T02:58:37.078Z,99565.47
2023-05-23T03:01:05.399Z,99560.16
2023-05-23T03:03:33.517Z,99569.16
2023-05-23T03:06:03.487Z,99576.66
2023-05-23T03:08:30.247Z,99570.00
2023-05-23T03:10:57.032Z,99570.63
2023-05-23T03:13:23.865Z,99569.91
2023-05-23T03:15:50.658Z,99573.25
2023-05-23T03:18:17.440Z,99561.00
2023-05-23T03:20:44.295Z,99561.72
2023-05-23T03:23:11.030Z,99552.69
2023-05-23T03:25:37.906Z,99556.91
2023-05-23T03:28:04.908Z,99549.72
2023-05-23T03:30:31.822Z,99541.44
2023-05-23T03:32:58.723Z,99554.88
2023-05-23T03:35:25.572Z,99549.84
2023-05-23T03:37:52.382Z,99541.88
2023-05-23T03:40:19.404Z,99539.06
2023-05-23T03:42:48.081Z,99544.09
2023-05-23T03:45:14.877Z,99553.50
2023-05-23T03:47:43.102Z,99535.63
2023-05-23T03:50:28.654Z,99539.25
2023-05-23T03:52:57.100Z,99533.31
2023-05-23T03:55:25.581Z,99530.34
2023-05-23T03:57:52.531Z,99538.81
2023-05-23T04:00:20.249Z,99532.88
2023-05-23T04:03:08.888Z,99533.75
2023-05-23T04:05:36.164Z,99530.22
2023-05-23T04:08:03.864Z,99542.78
2023-05-23T04:10:31.295Z,99542.25
2023-05-23T04:12:58.990Z,99544.97
2023-05-23T04:15:25.951Z,99539.53
2023-05-23T04:17:58.389Z,99539.50
2023-05-23T04:20:26.718Z,99537.34
2023-05-23T04:22:54.085Z,99542.81
2023-05-23T04:25:40.081Z,99539.78
2023-05-23T04:28:17.664Z,99541.44
2023-05-23T04:30:45.193Z,99545.53
2023-05-23T04:33:13.505Z,99542.81
2023-05-23T04:35:41.144Z,99537.09
2023-05-23T04:38:27.896Z,99536.84
2023-05-23T04:40:55.512Z,99539.06
2023-05-23T04:43:48.287Z,99539.34
2023-05-23T04:46:27.831Z,99537.44
2023-05-23T04:49:07.158Z,99541.81
2023-05-23T04:51:35.438Z,99545.38
2023-05-23T04:54:12.874Z,99535.28
2023-05-23T04:56:40.117Z,99540.47
2023-05-23T04:59:25.863Z,99545.13
2023-05-23T05:01:52.932Z,99550.59
2023-05-23T05:04:21.124Z,99545.97
2023-05-23T05:06:48.864Z,99553.88
2023-05-23T05:09:16.246Z,99539.72
2023-05-23T05:11:43.850Z,99550.38
2023-05-23T05:14:11.539Z,99546.84
2023-05-23T05:16:38.456Z,99545.19
2023-05-23T05:19:05.492Z,99557.75
2023-05-23T05:21:33.868Z,99553.63
2023-05-23T05:24:03.134Z,99559.88
2023-05-23T05:26:30.040Z,99559.88
2023-05-23T05:28:57.365Z,99557.41
2023-05-23T05:31:27.345Z,99557.72
2023-05-23T05:33:55.556Z,99555.56
2023-05-23T05:36:22.437Z,99556.09
2023-05-23T05:38:51.294Z,99548.44
2023-05-23T05:41:28.997Z,99552.53
2023-05-23T05:43:58.280Z,99555.00
2023-05-23T05:46:25.085Z,99555.25
2023-05-23T05:48:53.164Z,99556.94
2023-05-23T05:51:21.881Z,99546.28
2023-05-23T05:53:52.109Z,99560.47
2023-05-23T05:56:19.004Z,99553.91
2023-05-23T05:58:45.795Z,99554.19
2023-05-23T06:01:15.752Z,99549.56
2023-05-23T06:03:42.800Z,99559.06
2023-05-23T06:06:10.359Z,99561.50
2023-05-23T06:08:39.185Z,99545.88
2023-05-23T06:11:10.586Z,99545.56
2023-05-23T06:13:37.534Z,99541.69
2023-05-23T06:16:05.017Z,99534.56
2023-05-23T06:18:32.151Z,99537.25
2023-05-23T06:20:58.962Z,99539.94
2023-05-23T06:23:26.329Z,99532.78
2023-05-23T06:25:53.275Z,99527.84
2023-05-23T06:28:20.182Z,99514.16
2023-05-23T06:30:47.032Z,99519.75
2023-05-23T06:33:14.146Z,99510.88
2023-05-23T06:35:42.468Z,99505.63
2023-05-23T06:38:09.308Z,99508.69
2023-05-23T06:40:36.181Z,99510.41
2023-05-23T06:43:03.644Z,99508.28
2023-05-23T06:45:54.097Z,99504.47
2023-05-23T06:48:21.038Z,99514.81
2023-05-23T06:50:49.455Z,99510.50
2023-05-23T06:53:18.762Z,99510.59
2023-05-23T06:55:46.717Z,99510.56
2023-05-23T06:58:16.563Z,99507.84
2023-05-23T07:00:43.892Z,99493.50
2023-05-23T07:03:28.761Z,99498.00
2023-05-23T07:06:00.315Z,99493.50
2023-05-23T07:08:27.134Z,99483.59
2023-05-23T07:10:59.715Z,99492.53
2023-05-23T07:13:46.941Z,99485.56
2023-05-23T07:16:21.635Z,99494.91
2023-05-23T07:18:59.148Z,99493.00
2023-05-23T07:21:26.069Z,99485.00
2023-05-23T07:23:52.990Z,99485.34
2023-05-23T07:26:21.357Z,99487.16
2023-05-23T07:28:52.222Z,99488.69
2023-05-23T07:31:19.127Z,99491.28
2023-05-23T07:33:46.822Z,99494.69
2023-05-23T07:36:20.244Z,99499.06
2023-05-23T07:38:47.235Z,99484.53
2023-05-23T07:41:14.502Z,99487.75
2023-05-23T07:43:41.442Z,99490.84
2023-05-23T07:46:08.738Z,99492.69
2023-05-23T07:48:36.863Z,99502.09
2023-05-23T07:51:04.148Z,99495.16
2023-05-23T07:53:31.384Z,99502.91
2023-05-23T07:55:58.729Z,99497.16
2023-05-23T07:58:28.978Z,99494.78
2023-05-23T08:00:55.827Z,99503.25
2023-05-23T08:03:42.703Z,99500.03
2023-05-23T08:06:15.445Z,99496.34
2023-05-23T08:08:43.925Z,99495.41
2023-05-23T08:11:11.003Z,99499.94
2023-05-23T08:13:44.081Z,99492.75
2023-05-23T08:16:38.022Z,99497.31
2023-05-23T08:19:16.609Z,99497.22
2023-05-23T08:21:44.700Z,99493.25
2023-05-23T08:24:15.067Z,99488.81
2023-05-23T08:26:43.698Z,99486.03
2023-05-23T08:29:12.751Z,99479.88
2023-05-23T08:31:41.160Z,99484.16
2023-05-23T08:34:08.940Z,99481.91
2023-05-23T08:36:41.827Z,99465.84
2023-05-23T08:39:14.051Z,99476.00
2023-05-23T08:41:57.096Z,99479.41
2023-05-23T08:44:24.061Z,99478.31
2023-05-23T08:46:58.554Z,99481.50
2023-05-23T08:49:45.691Z,99481.00
2023-05-23T08:52:13.597Z,99478.84
2023-05-23T08:54:43.712Z,99471.38
2023-05-23T08:57:13.029Z,99479.94
2023-05-23T08:59:44.412Z,99470.09
2023-05-23T09:02:12.236Z,99474.63
2023-05-23T09:04:39.155Z,99479.53
2023-05-23T09:07:20.066Z,99480.59
2023-05-23T09:09:51.156Z,99494.25
2023-05-23T09:12:18.274Z,99485.31
2023-05-23T09:14:47.284Z,99482.50
2023-05-23T09:17:20.944Z,99490.75
2023-05-23T09:19:48.197Z,99491.81
2023-05-23T09:22:38.085Z,99494.44
2023-05-23T09:25:13.198Z,99494.47
2023-05-23T09:27:43.250Z,99498.00
2023-05-23T09:30:13.059Z,99487.47
2023-05-23T09:32:39.989Z,99500.22
2023-05-23T09:35:07.871Z,99500.47
2023-05-23T09:37:41.093Z,99510.31
2023-05-23T09:40:10.525Z,99509.91
2023-05-23T09:42:43.558Z,99518.03
2023-05-23T09:45:10.956Z,99509.19
2023-05-23T09:47:37.938Z,99512.47
2023-05-23T09:50:05.018Z,99520.38
2023-05-23T09:52:41.236Z,99520.31
2023-05-23T09:55:08.626Z,99517.47
2023-05-23T09:57:37.843Z,99516.63
2023-05-23T10:00:14.308Z,99512.81
2023-05-23T10:02:41.175Z,99525.13
2023-05-23T10:05:08.284Z,99522.22
2023-05-23T10:07:35.262Z,99523.69
2023-05-23T10:10:03.805Z,99517.16
2023-05-23T10:12:58.431Z,99522.31
2023-05-23T10:15:25.638Z,99521.38
2023-05-23T10:17:52.457Z,99519.94
2023-05-23T10:20:22.093Z,99512.31
2023-05-23T10:22:48.944Z,99522.63
2023-05-23T10:25:17.033Z,99528.91
2023-05-23T10:27:43.826Z,99527.81
2023-05-23T10:30:11.474Z,99535.22
2023-05-23T10:32:39.179Z,99530.81
2023-05-23T10:35:26.467Z,99542.38
2023-05-23T10:37:56.572Z,99541.34
2023-05-23T10:40:29.434Z,99545.47
2023-05-23T10:43:15.262Z,99537.56
2023-05-23T10:45:45.630Z,99544.16
2023-05-23T10:48:42.379Z,99546.09
2023-05-23T10:51:11.347Z,99539.31
2023-05-23T10:53:39.162Z,99545.16
2023-05-23T10:56:07.199Z,99542.81
2023-05-23T10:58:34.518Z,99545.28
2023-05-23T11:01:02.449Z,99552.94
2023-05-23T11:03:36.791Z,99545.06
2023-05-23T11:06:04.374Z,99543.69
2023-05-23T11:08:47.168Z,99547.53
2023-05-23T11:11:14.942Z,99553.31
2023-05-23T11:13:53.844Z,99548.16
2023-05-23T11:16:27.597Z,99548.44
2023-05-23T11:19:13.002Z,99551.47
2023-05-23T11:21:40.130Z,99548.47
2023-05-23T11:24:06.984Z,99549.56
2023-05-23T11:26:33.825Z,99555.81
2023-05-23T11:29:00.657Z,99555.00
2023-05-23T11:31:28.058Z,99550.91
2023-05-23T11:33:55.320Z,99553.88
2023-05-23T11:36:22.805Z,99556.59
2023-05-23T11:38:53.319Z,99556.34
2023-05-23T11:41:20.815Z,99547.88
2023-05-23T11:43:51.857Z,99544.06
2023-05-23T11:46:18.815Z,99546.75
2023-05-23T11:48:46.900Z,99537.50
2023-05-23T11:51:13.848Z,99533.97
2023-05-23T11:53:40.964Z,99536.16
2023-05-23T11:56:08.473Z,99529.63
2023-05-23T11:58:36.202Z,99539.72
2023-05-23T12:01:03.909Z,99533.69
2023-05-23T12:03:31.995Z,99527.03
2023-05-23T12:05:59.345Z,99524.75
2023-05-23T12:08:26.163Z,99530.09
2023-05-23T12:10:53.647Z,99522.28
2023-05-23T12:13:20.676Z,99519.63
2023-05-23T12:15:48.000Z,99516.97
2023-05-23T12:18:17.229Z,99515.84
2023-05-23T12:20:43.979Z,99520.38
2023-05-23T12:23:18.244Z,99510.34
2023-05-23T12:25:45.171Z,99507.38
2023-05-23T12:28:13.944Z,99503.53
2023-05-23T12:30:44.236Z,99506.53
2023-05-23T12:33:12.120Z,99500.22
2023-05-23T12:35:43.043Z,99505.41
2023-05-23T12:38:10.047Z,99504.31
2023-05-23T12:40:36.874Z,99500.13
2023-05-23T12:43:03.633Z,99504.59
2023-05-23T12:45:34.156Z,99500.34
2023-05-23T12:48:02.226Z,99493.91
2023-05-23T12:50:29.292Z,99489.25
2023-05-23T12:52:56.745Z,99473.94
2023-05-23T12:55:23.491Z,99472.28
2023-05-23T12:57:50.430Z,99472.91
2023-05-23T13:00:17.599Z,99476.75
2023-05-23T13:02:44.549Z,99482.31
2023-05-23T13:05:11.592Z,99479.81
2023-05-23T13:07:38.457Z,99478.16
2023-05-23T13:10:05.728Z,99475.16
2023-05-23T13:12:34.414Z,99471.88
2023-05-23T13:15:19.619Z,99471.56
2023-05-23T13:18:05.060Z,99472.44
2023-05-23T13:20:32.044Z,99476.84
2023-05-23T13:22:59.145Z,99475.34
2023-05-23T13:25:26.440Z,99479.94
2023-05-23T13:27:53.427Z,99473.59
2023-05-23T13:30:39.319Z,99484.50
2023-05-23T13:33:06.569Z,99482.53
2023-05-23T13:35:33.384Z,99491.69
2023-05-23T13:38:00.288Z,99486.09
2023-05-23T13:40:27.210Z,99492.19
2023-05-23T13:42:54.135Z,99487.56
2023-05-23T13:45:22.809Z,99488.63
2023-05-23T13:47:49.970Z,99483.16
2023-05-23T13:50:18.007Z,99486.44
2023-05-23T13:52:49.039Z,99492.44
2023-05-23T13:55:16.550Z,99490.47
2023-05-23T13:57:43.362Z,99486.34
2023-05-23T14:00:10.639Z,99484.19
2023-05-23T14:02:37.589Z,99485.38
2023-05-23T14:05:05.113Z,99487.56
2023-05-23T14:07:32.004Z,99481.88
2023-05-23T14:09:59.993Z,99486.44
2023-05-23T14:12:26.863Z,99489.50
2023-05-23T14:14:53.707Z,99473.66
2023-05-23T14:17:20.652Z,99476.63
2023-05-23T14:19:47.767Z,99481.41
2023-05-23T14:22:15.224Z,99470.25
2023-05-23T14:24:42.647Z,99469.25
2023-05-23T14:27:11.337Z,99470.03
2023-05-23T14:29:38.564Z,99465.91
2023-05-23T14:32:05.491Z,99463.50
2023-05-23T14:34:32.372Z,99465.69
2023-05-23T14:36:59.601Z,99460.53
2023-05-23T14:39:26.634Z,99450.75
2023-05-23T14:41:53.486Z,99449.41
2023-05-23T14:44:20.371Z,99445.53
2023-05-23T14:46:50.421Z,99448.53
2023-05-23T14:49:17.375Z,99444.47
2023-05-23T14:51:49.701Z,99438.25
2023-05-23T14:54:17.538Z,99437.22
2023-05-23T14:56:44.495Z,99437.00
2023-05-23T14:59:11.812Z,99441.97
2023-05-23T15:01:40.403Z,99426.41
2023-05-23T15:04:09.615Z,99433.81
2023-05-23T15:06:38.132Z,99420.66
2023-05-23T15:09:05.189Z,99412.78
2023-05-23T15:12:43.410Z,99414.81
2023-05-23T15:14:32.396Z,99414.63
2023-05-23T15:17:07.758Z,99406.19
2023-05-23T15:19:37.787Z,99401.91
2023-05-23T15:22:05.261Z,99403.63
2023-05-23T15:24:32.099Z,99399.78
2023-05-23T15:27:11.785Z,99389.69
2023-05-23T15:29:46.019Z,99388.88
2023-05-23T15:32:13.226Z,99391.38
2023-05-23T15:34:40.139Z,99387.78
2023-05-23T15:37:06.992Z,99385.63
2023-05-23T15:39:52.432Z,99388.63
2023-05-23T15:42:19.670Z,99392.16
2023-05-23T15:44:46.620Z,99385.59
2023-05-23T15:47:13.483Z,99383.19
2023-05-23T15:49:40.316Z,99380.72
2023-05-23T15:52:09.935Z,99365.72
2023-05-23T15:54:36.778Z,99366.53
2023-05-23T15:57:03.634Z,99368.41
2023-05-23T15:59:31.657Z,99367.84
2023-05-23T16:01:58.632Z,99368.16
2023-05-23T16:04:25.540Z,99373.63
2023-05-23T16:06:52.441Z,99360.84
2023-05-23T16:09:19.238Z,99366.88
2023-05-23T16:11:46.138Z,99366.03
2023-05-23T16:14:13.054Z,99362.75
2023-05-23T16:16:40.104Z,99369.31
2023-05-23T16:19:07.122Z,99369.06
2023-05-23T16:21:34.206Z,99363.59
2023-05-23T16:24:01.371Z,99363.06
2023-05-23T16:26:28.414Z,99358.69
2023-05-23T16:28:55.208Z,99354.56
2023-05-23T16:31:25.814Z,99348.59
2023-05-23T16:33:52.690Z,99354.59
2023-05-23T16:36:19.594Z,99354.94
2023-05-23T16:38:46.562Z,99364.53
2023-05-23T16:41:15.684Z,99365.34
2023-05-23T16:43:42.524Z,99356.66
2023-05-23T16:46:10.503Z,99355.34
2023-05-23T16:48:37.374Z,99366.56
2023-05-23T16:51:04.383Z,99372.31
2023-05-23T16:53:31.209Z,99360.31
2023-05-23T16:55:58.255Z,99359.78
2023-05-23T16:58:25.049Z,99369.06
2023-05-23T17:00:53.025Z,99366.59
2023-05-23T17:03:20.596Z,99368.28
2023-05-23T17:05:47.527Z,99370.47
2023-05-23T17:08:15.697Z,99373.75
2023-05-23T17:10:42.877Z,99366.94
2023-05-23T17:13:10.003Z,99368.56
2023-05-23T17:15:37.583Z,99365.56
2023-05-23T17:18:04.585Z,99359.31
2023-05-23T17:20:31.501Z,99354.69
2023-05-23T17:22:58.359Z,99349.50
2023-05-23T17:25:25.296Z,99350.06
2023-05-23T17:27:52.173Z,99348.69
2023-05-23T17:30:19.200Z,99350.63
2023-05-23T17:32:49.596Z,99322.81
2023-05-23T17:35:16.593Z,99331.00
2023-05-23T17:37:45.259Z,99316.03
2023-05-23T17:40:12.619Z,99316.28
2023-05-23T17:42:40.180Z,99309.47
2023-05-23T17:45:09.871Z,99308.13
2023-05-23T17:47:36.985Z,99301.31
2023-05-23T17:50:04.633Z,99317.13
2023-05-23T17:52:31.685Z,99307.59
2023-05-23T17:55:06.440Z,99310.88
2023-05-23T17:57:33.481Z,99311.69
2023-05-23T18:00:00.392Z,99307.59
2023-05-23T18:02:27.994Z,99302.72
2023-05-23T18:04:55.175Z,99301.38
2023-05-23T18:07:22.495Z,99290.47
2023-05-23T18:09:49.654Z,99290.47
2023-05-23T18:12:19.644Z,99287.22
2023-05-23T18:14:46.544Z,99291.59
2023-05-23T18:17:13.414Z,99295.13
2023-05-23T18:19:40.606Z,99291.84
2023-05-23T18:22:07.685Z,99291.59
2023-05-23T18:24:53.181Z,99294.03
2023-05-23T18:27:19.998Z,99290.75
2023-05-23T18:29:46.940Z,99289.69
2023-05-23T18:32:14.817Z,99286.41
2023-05-23T18:35:00.238Z,99283.97
2023-05-23T18:37:27.184Z,99281.53
2023-05-23T18:40:12.649Z,99281.53
2023-05-23T18:42:39.516Z,99290.50
2023-05-23T18:45:06.726Z,99287.78
2023-05-23T18:47:34.422Z,99288.03
2023-05-23T18:50:01.514Z,99284.25
2023-05-23T18:52:28.487Z,99281.53
2023-05-23T18:54:55.693Z,99278.81
2023-05-23T18:57:25.283Z,99280.44
2023-05-23T18:59:52.108Z,99279.34
2023-05-23T19:02:19.102Z,99285.59
2023-05-23T19:04:46.790Z,99292.41
2023-05-23T19:07:13.796Z,99289.13
2023-05-23T19:09:40.701Z,99291.84
2023-05-23T19:12:07.615Z,99294.84
2023-05-23T19:14:34.422Z,99292.97
2023-05-23T19:17:02.326Z,99285.59
2023-05-23T19:19:31.522Z,99284.25
2023-05-23T19:21:58.739Z,99285.84
2023-05-23T19:24:28.248Z,99289.38
2023-05-23T19:26:56.379Z,99285.31
2023-05-23T19:29:41.973Z,99283.69
2023-05-23T19:32:09.074Z,99285.31
2023-05-23T19:34:36.461Z,99266.25
2023-05-23T19:37:03.357Z,99280.41
2023-05-23T19:39:30.194Z,99271.69
2023-05-23T19:42:03.349Z,99282.59
2023-05-23T19:44:49.171Z,99276.63
2023-05-23T19:47:34.535Z,99277.44
2023-05-23T19:50:02.527Z,99267.34
2023-05-23T19:52:30.910Z,99262.72
2023-05-23T19:54:57.692Z,99260.81
2023-05-23T19:57:26.234Z,99262.16
2023-05-23T19:59:53.496Z,99265.44
2023-05-23T20:02:20.631Z,99260.28
2023-05-23T20:04:47.454Z,99259.72
2023-05-23T20:07:14.303Z,99261.91
2023-05-23T20:09:41.085Z,99263.00
2023-05-23T20:12:08.468Z,99264.09
2023-05-23T20:14:35.497Z,99263.53
2023-05-23T20:17:02.328Z,99259.19
2023-05-23T20:19:29.146Z,99255.38
2023-05-23T20:21:57.433Z,99258.94
2023-05-23T20:24:27.341Z,99254.28
2023-05-23T20:26:54.282Z,99255.91
2023-05-23T20:29:21.072Z,99256.72
2023-05-23T20:31:48.107Z,99257.56
2023-05-23T20:34:14.959Z,99262.16
2023-05-23T20:36:41.816Z,99261.34
2023-05-23T20:39:09.522Z,99260.00
2023-05-23T20:41:36.633Z,99260.00
2023-05-23T20:44:03.371Z,99263.81
2023-05-23T20:46:30.218Z,99270.34
2023-05-23T20:48:57.733Z,99265.75
2023-05-23T20:51:24.834Z,99270.34
2023-05-23T20:53:53.274Z,99272.81
2023-05-23T20:56:20.176Z,99272.81
2023-05-23T20:58:47.409Z,99267.38
2023-05-23T21:01:15.190Z,99273.91
2023-05-23T21:03:42.272Z,99280.44
2023-05-23T21:06:09.185Z,99275.53
2023-05-23T21:08:36.513Z,99275.28
2023-05-23T21:11:03.521Z,99278.00
2023-05-23T21:13:30.527Z,99271.19
2023-05-23T21:15:57.283Z,99272.56
2023-05-23T21:18:24.305Z,99267.38
2023-05-23T21:20:51.296Z,99266.81
2023-05-23T21:23:18.045Z,99270.66
2023-05-23T21:25:45.001Z,99267.38
2023-05-23T21:28:11.769Z,99263.28
2023-05-23T21:30:38.915Z,99267.63
2023-05-23T21:33:06.169Z,99262.72
2023-05-23T21:35:36.074Z,99268.69
2023-05-23T21:38:02.845Z,99260.81
2023-05-23T21:40:29.740Z,99263.81
2023-05-23T21:42:56.690Z,99258.38
2023-05-23T21:45:23.445Z,99258.88
2023-05-23T21:47:51.652Z,99262.97
2023-05-23T21:50:18.672Z,99255.34
2023-05-23T21:52:45.648Z,99251.28
2023-05-23T21:55:12.540Z,99251.56
2023-05-23T21:57:39.333Z,99248.00
2023-05-23T22:00:10.474Z,99251.81
2023-05-23T22:02:39.946Z,99248.84
2023-05-23T22:05:10.193Z,99247.75
2023-05-23T22:07:37.092Z,99246.38
2023-05-23T22:10:04.062Z,99244.47
2023-05-23T22:12:31.006Z,99246.13
2023-05-23T22:14:57.809Z,99242.56
2023-05-23T22:17:26.487Z,99250.72
2023-05-23T22:19:53.481Z,99239.84
2023-05-23T22:22:20.405Z,99233.59
2023-05-23T22:24:47.500Z,99232.78
2023-05-23T22:27:14.283Z,99239.03
2023-05-23T22:29:41.320Z,99237.41
2023-05-23T22:32:08.263Z,99242.31
2023-05-23T22:34:35.285Z,99236.31
2023-05-23T22:37:03.557Z,99243.41
2023-05-23T22:39:30.352Z,99234.16
2023-05-23T22:41:57.244Z,99244.47
2023-05-23T22:44:23.960Z,99240.41
2023-05-23T22:46:52.267Z,99245.56
2023-05-23T22:49:21.935Z,99248.84
2023-05-23T22:51:48.887Z,99245.03
2023-05-23T22:54:15.938Z,99251.03
2023-05-23T22:56:42.718Z,99248.06
2023-05-23T22:59:09.574Z,99244.50
2023-05-23T23:01:36.615Z,99243.13
2023-05-23T23:04:03.460Z,99246.16
2023-05-23T23:06:30.295Z,99247.78
2023-05-23T23:08:57.328Z,99242.06
2023-05-23T23:11:24.092Z,99247.19
2023-05-23T23:13:50.923Z,99248.84
2023-05-23T23:16:19.533Z,99242.56
2023-05-23T23:18:47.266Z,99251.28
2023-05-23T23:21:14.086Z,99250.19
2023-05-23T23:23:41.963Z,99249.66
2023-05-23T23:26:08.711Z,99245.56
2023-05-23T23:28:35.574Z,99246.63
2023-05-23T23:31:02.348Z,99241.75
2023-05-23T23:33:29.531Z,99250.72
2023-05-23T23:35:56.630Z,99242.03
2023-05-23T23:38:23.442Z,99242.03
2023-05-23T23:40:50.271Z,99247.72
2023-05-23T23:43:17.107Z,99240.38
2023-05-23T23:45:43.895Z,99246.38
2023-05-23T23:48:10.984Z,99236.03
2023-05-23T23:50:37.773Z,99243.09
2023-05-23T23:53:04.662Z,99234.13
2023-05-23T23:55:31.590Z,99236.81
2023-05-23T23:57:58.356Z,99237.38
